Hauptseite
METAR-TAF:

METAR-TAF

Flughäfen :

Souillac

Brive-la-Gaillarde, Frankreich

Breite: 45-02-28N, Länge: 001-28-59E, Höhe: 311 m

Beobachtung

Neuester Wetterbericht von vor 44 Minuten, um 03:00 UTC
Wind 3 kt aus unterschiedlichen Richtungen
Temperatur 15°C
Luftfeuchtigkeit 77%
Luftdruck 1020 hPa
Sichtweite 10 km oder mehr
keine Wolken unter 1500 m und keine Kumulonimbus oder Gewitterwolken

METAR: LFSL 200300Z AUTO VRB03KT CAVOK 15/11 Q1020 NOSIG

Zeit: 05:44 (03:44 UTC)

Prognose

Neuester Wetterbericht von vor 1 Stunde und 44 Minuten, um 02:00 UTC
Gültige Prognose vom 20 um 03 UTC bis 20 um 12 UTC
Wind 4 kt aus Nordwest
Sichtweite 10 km oder mehr
keine Wolken unter 1500 m und keine Kumulonimbus oder Gewitterwolken
Übergehend zu
vom 20 um 07 UTC bis 20 um 08 UTC
Durchbrochene Bewölkung in der Höhe von 3500 ft

TAF: LFSL 200200Z 2003/2012 32004KT CAVOK BECMG 2007/2008 BKN035

Wetterbeobachtungen und Prognosen von mehr als 4000 Flughäfen (METAR und TAF Bericht).

Die verfügbaren Stationen werden durch gelbe und rote Markierungen auf der Karte dargestellt.

Führen Sie die Maus auf sie, um den Namen der Station zu sehen.

Darauf klicken, um die Beobachtung von Wetterbeobachtungen und Prognosen zu sehen.

Um die Karte zu ändern : klicken Sie auf den grünen Tasten mit einem schwarzen Kreuz Zum Vergrößern, auf den grünen Button mit einem Gedankenstrich zu verkleinern, oder auf die grünen Pfeile für benachbarte Karten.


METAR-TAF: